sensor_id;sensor_type;location;lat;lon;timestamp;temperature;humidity
33988;DHT22;37428;53.580;-1.666;2022-08-23T00:01:11;18.40;94.90
33988;DHT22;37428;53.580;-1.666;2022-08-23T00:04:23;18.30;95.10
33988;DHT22;37428;53.580;-1.666;2022-08-23T00:07:54;18.20;95.40
33988;DHT22;37428;53.580;-1.666;2022-08-23T00:11:01;18.10;95.30
33988;DHT22;37428;53.580;-1.666;2022-08-23T00:14:06;18.10;95.20
33988;DHT22;37428;53.580;-1.666;2022-08-23T00:17:09;18.10;95.10
33988;DHT22;37428;53.580;-1.666;2022-08-23T00:20:25;18.10;95.90
33988;DHT22;37428;53.580;-1.666;2022-08-23T00:23:48;18.10;95.80
33988;DHT22;37428;53.580;-1.666;2022-08-23T00:26:55;18.00;95.90
33988;DHT22;37428;53.580;-1.666;2022-08-23T00:30:03;18.00;95.70
33988;DHT22;37428;53.580;-1.666;2022-08-23T00:34:06;18.00;95.50
33988;DHT22;37428;53.580;-1.666;2022-08-23T00:37:03;17.90;94.40
33988;DHT22;37428;53.580;-1.666;2022-08-23T00:40:13;17.90;95.00
33988;DHT22;37428;53.580;-1.666;2022-08-23T00:43:26;17.80;95.10
33988;DHT22;37428;53.580;-1.666;2022-08-23T00:46:52;17.80;94.40
33988;DHT22;37428;53.580;-1.666;2022-08-23T00:50:23;17.80;95.40
33988;DHT22;37428;53.580;-1.666;2022-08-23T00:53:43;17.80;95.70
33988;DHT22;37428;53.580;-1.666;2022-08-23T00:56:47;17.80;96.10
33988;DHT22;37428;53.580;-1.666;2022-08-23T01:00:00;17.80;95.90
33988;DHT22;37428;53.580;-1.666;2022-08-23T01:03:20;17.70;96.00
33988;DHT22;37428;53.580;-1.666;2022-08-23T01:06:26;17.80;95.60
33988;DHT22;37428;53.580;-1.666;2022-08-23T01:10:12;17.80;95.50
33988;DHT22;37428;53.580;-1.666;2022-08-23T01:14:11;17.80;95.10
33988;DHT22;37428;53.580;-1.666;2022-08-23T01:17:07;17.80;95.30
33988;DHT22;37428;53.580;-1.666;2022-08-23T01:20:25;17.70;95.30
33988;DHT22;37428;53.580;-1.666;2022-08-23T01:23:55;17.70;95.00
33988;DHT22;37428;53.580;-1.666;2022-08-23T01:27:01;17.70;94.90
33988;DHT22;37428;53.580;-1.666;2022-08-23T01:30:05;17.70;95.00
33988;DHT22;37428;53.580;-1.666;2022-08-23T01:33:08;17.70;94.50
33988;DHT22;37428;53.580;-1.666;2022-08-23T01:36:29;17.60;94.20
33988;DHT22;37428;53.580;-1.666;2022-08-23T01:39:37;17.60;94.50
33988;DHT22;37428;53.580;-1.666;2022-08-23T01:42:40;17.60;94.10
33988;DHT22;37428;53.580;-1.666;2022-08-23T01:45:42;17.50;94.20
33988;DHT22;37428;53.580;-1.666;2022-08-23T01:48:45;17.50;94.00
33988;DHT22;37428;53.580;-1.666;2022-08-23T01:51:47;17.40;94.00
33988;DHT22;37428;53.580;-1.666;2022-08-23T01:54:50;17.40;94.70
33988;DHT22;37428;53.580;-1.666;2022-08-23T01:58:17;17.40;94.50
33988;DHT22;37428;53.580;-1.666;2022-08-23T02:01:21;17.40;94.90
33988;DHT22;37428;53.580;-1.666;2022-08-23T02:04:31;17.40;94.80
33988;DHT22;37428;53.580;-1.666;2022-08-23T02:07:48;17.50;94.90
33988;DHT22;37428;53.580;-1.666;2022-08-23T02:10:52;17.50;95.00
33988;DHT22;37428;53.580;-1.666;2022-08-23T02:13:59;17.50;95.30
33988;DHT22;37428;53.580;-1.666;2022-08-23T02:17:29;17.50;95.50
33988;DHT22;37428;53.580;-1.666;2022-08-23T02:20:48;17.50;95.30
33988;DHT22;37428;53.580;-1.666;2022-08-23T02:24:03;17.50;95.60
33988;DHT22;37428;53.580;-1.666;2022-08-23T02:27:19;17.50;95.20
33988;DHT22;37428;53.580;-1.666;2022-08-23T02:30:30;17.40;95.00
33988;DHT22;37428;53.580;-1.666;2022-08-23T02:33:59;17.40;95.50
33988;DHT22;37428;53.580;-1.666;2022-08-23T02:37:13;17.30;95.40
33988;DHT22;37428;53.580;-1.666;2022-08-23T02:40:16;17.30;95.00
33988;DHT22;37428;53.580;-1.666;2022-08-23T02:43:37;17.20;95.60
33988;DHT22;37428;53.580;-1.666;2022-08-23T02:50:48;17.20;95.30
33988;DHT22;37428;53.580;-1.666;2022-08-23T02:53:51;17.10;95.50
33988;DHT22;37428;53.580;-1.666;2022-08-23T02:56:54;17.10;95.30
33988;DHT22;37428;53.580;-1.666;2022-08-23T03:00:02;17.10;95.10
33988;DHT22;37428;53.580;-1.666;2022-08-23T03:03:09;17.10;95.20
33988;DHT22;37428;53.580;-1.666;2022-08-23T03:06:25;17.10;96.00
33988;DHT22;37428;53.580;-1.666;2022-08-23T03:09:33;17.00;96.50
33988;DHT22;37428;53.580;-1.666;2022-08-23T03:12:37;17.00;96.80
33988;DHT22;37428;53.580;-1.666;2022-08-23T03:16:00;17.00;97.00
33988;DHT22;37428;53.580;-1.666;2022-08-23T03:19:32;17.10;97.20
33988;DHT22;37428;53.580;-1.666;2022-08-23T03:26:25;17.20;97.30
33988;DHT22;37428;53.580;-1.666;2022-08-23T03:29:33;17.20;97.10
33988;DHT22;37428;53.580;-1.666;2022-08-23T03:32:47;17.20;96.70
33988;DHT22;37428;53.580;-1.666;2022-08-23T03:35:51;17.30;96.70
33988;DHT22;37428;53.580;-1.666;2022-08-23T03:39:02;17.30;96.80
33988;DHT22;37428;53.580;-1.666;2022-08-23T03:42:05;17.30;97.20
33988;DHT22;37428;53.580;-1.666;2022-08-23T03:45:21;17.30;96.80
33988;DHT22;37428;53.580;-1.666;2022-08-23T03:48:26;17.30;96.90
33988;DHT22;37428;53.580;-1.666;2022-08-23T03:51:40;17.30;96.40
33988;DHT22;37428;53.580;-1.666;2022-08-23T03:54:48;17.30;96.30
33988;DHT22;37428;53.580;-1.666;2022-08-23T03:58:17;17.30;96.20
33988;DHT22;37428;53.580;-1.666;2022-08-23T04:05:32;17.30;96.10
33988;DHT22;37428;53.580;-1.666;2022-08-23T04:08:56;17.20;95.80
33988;DHT22;37428;53.580;-1.666;2022-08-23T04:11:58;17.20;96.20
33988;DHT22;37428;53.580;-1.666;2022-08-23T04:15:01;17.20;96.20
33988;DHT22;37428;53.580;-1.666;2022-08-23T04:18:07;17.20;96.40
33988;DHT22;37428;53.580;-1.666;2022-08-23T04:24:51;17.20;96.10
33988;DHT22;37428;53.580;-1.666;2022-08-23T04:28:36;17.10;96.50
33988;DHT22;37428;53.580;-1.666;2022-08-23T04:37:14;17.00;96.80
33988;DHT22;37428;53.580;-1.666;2022-08-23T04:38:59;17.00;97.00
33988;DHT22;37428;53.580;-1.666;2022-08-23T04:42:06;17.00;96.90
33988;DHT22;37428;53.580;-1.666;2022-08-23T04:49:26;17.00;96.70
33988;DHT22;37428;53.580;-1.666;2022-08-23T04:52:31;17.00;96.60
33988;DHT22;37428;53.580;-1.666;2022-08-23T04:55:36;16.90;96.70
33988;DHT22;37428;53.580;-1.666;2022-08-23T04:58:40;17.00;96.70
33988;DHT22;37428;53.580;-1.666;2022-08-23T05:02:23;16.90;96.50
33988;DHT22;37428;53.580;-1.666;2022-08-23T05:06:00;17.00;96.80
33988;DHT22;37428;53.580;-1.666;2022-08-23T05:09:11;16.90;97.00
33988;DHT22;37428;53.580;-1.666;2022-08-23T05:12:31;16.90;97.20
33988;DHT22;37428;53.580;-1.666;2022-08-23T05:15:37;16.90;97.40
33988;DHT22;37428;53.580;-1.666;2022-08-23T05:19:40;17.00;97.00
33988;DHT22;37428;53.580;-1.666;2022-08-23T05:22:49;17.00;97.20
33988;DHT22;37428;53.580;-1.666;2022-08-23T05:25:53;17.00;97.60
33988;DHT22;37428;53.580;-1.666;2022-08-23T05:29:10;17.00;97.70
33988;DHT22;37428;53.580;-1.666;2022-08-23T05:32:32;17.00;97.60
33988;DHT22;37428;53.580;-1.666;2022-08-23T05:35:36;17.00;97.30
33988;DHT22;37428;53.580;-1.666;2022-08-23T05:38:40;17.00;97.30
33988;DHT22;37428;53.580;-1.666;2022-08-23T05:41:48;17.00;97.20
33988;DHT22;37428;53.580;-1.666;2022-08-23T05:44:50;17.00;97.40
33988;DHT22;37428;53.580;-1.666;2022-08-23T05:48:19;17.00;97.50
33988;DHT22;37428;53.580;-1.666;2022-08-23T05:51:25;17.10;97.40
33988;DHT22;37428;53.580;-1.666;2022-08-23T05:54:31;17.00;96.90
33988;DHT22;37428;53.580;-1.666;2022-08-23T05:57:34;16.90;96.70
33988;DHT22;37428;53.580;-1.666;2022-08-23T06:00:44;16.90;97.40
33988;DHT22;37428;53.580;-1.666;2022-08-23T06:03:48;16.90;96.90
33988;DHT22;37428;53.580;-1.666;2022-08-23T06:07:05;16.90;97.00
33988;DHT22;37428;53.580;-1.666;2022-08-23T06:10:20;17.00;96.70
33988;DHT22;37428;53.580;-1.666;2022-08-23T06:13:39;17.00;96.50
33988;DHT22;37428;53.580;-1.666;2022-08-23T06:20:30;17.20;96.10
33988;DHT22;37428;53.580;-1.666;2022-08-23T06:23:43;17.20;95.40
33988;DHT22;37428;53.580;-1.666;2022-08-23T06:26:56;17.20;96.10
33988;DHT22;37428;53.580;-1.666;2022-08-23T06:30:03;17.30;96.10
33988;DHT22;37428;53.580;-1.666;2022-08-23T06:35:29;17.40;95.90
33988;DHT22;37428;53.580;-1.666;2022-08-23T06:37:15;17.50;95.70
33988;DHT22;37428;53.580;-1.666;2022-08-23T06:40:18;17.50;95.30
33988;DHT22;37428;53.580;-1.666;2022-08-23T06:43:51;17.50;95.20
33988;DHT22;37428;53.580;-1.666;2022-08-23T06:47:12;17.50;95.20
33988;DHT22;37428;53.580;-1.666;2022-08-23T06:50:19;17.60;95.30
33988;DHT22;37428;53.580;-1.666;2022-08-23T06:53:49;17.60;94.50
33988;DHT22;37428;53.580;-1.666;2022-08-23T07:01:18;17.70;94.40
33988;DHT22;37428;53.580;-1.666;2022-08-23T07:04:55;17.80;94.30
33988;DHT22;37428;53.580;-1.666;2022-08-23T07:08:36;17.80;94.60
33988;DHT22;37428;53.580;-1.666;2022-08-23T07:12:09;17.90;94.20
33988;DHT22;37428;53.580;-1.666;2022-08-23T07:15:41;17.90;94.50
33988;DHT22;37428;53.580;-1.666;2022-08-23T07:18:43;18.00;94.90
33988;DHT22;37428;53.580;-1.666;2022-08-23T07:21:56;18.00;94.20
33988;DHT22;37428;53.580;-1.666;2022-08-23T07:24:59;18.10;93.50
33988;DHT22;37428;53.580;-1.666;2022-08-23T07:28:36;18.10;92.80
33988;DHT22;37428;53.580;-1.666;2022-08-23T07:31:46;18.20;93.50
33988;DHT22;37428;53.580;-1.666;2022-08-23T07:34:51;18.20;92.80
33988;DHT22;37428;53.580;-1.666;2022-08-23T07:37:55;18.30;92.60
33988;DHT22;37428;53.580;-1.666;2022-08-23T07:40:57;18.40;92.00
33988;DHT22;37428;53.580;-1.666;2022-08-23T07:44:02;18.40;91.40
33988;DHT22;37428;53.580;-1.666;2022-08-23T07:47:51;18.50;91.10
33988;DHT22;37428;53.580;-1.666;2022-08-23T07:52:49;18.50;92.20
33988;DHT22;37428;53.580;-1.666;2022-08-23T07:54:20;18.50;93.50
33988;DHT22;37428;53.580;-1.666;2022-08-23T07:57:32;18.50;94.00
33988;DHT22;37428;53.580;-1.666;2022-08-23T08:00:40;18.50;94.20
33988;DHT22;37428;53.580;-1.666;2022-08-23T08:03:45;18.50;93.90
33988;DHT22;37428;53.580;-1.666;2022-08-23T08:06:52;18.50;93.50
33988;DHT22;37428;53.580;-1.666;2022-08-23T08:10:07;18.50;93.20
33988;DHT22;37428;53.580;-1.666;2022-08-23T08:13:09;18.50;93.00
33988;DHT22;37428;53.580;-1.666;2022-08-23T08:16:27;18.50;93.50
33988;DHT22;37428;53.580;-1.666;2022-08-23T08:19:31;18.50;93.40
33988;DHT22;37428;53.580;-1.666;2022-08-23T08:22:41;18.50;93.30
33988;DHT22;37428;53.580;-1.666;2022-08-23T08:25:45;18.50;93.30
33988;DHT22;37428;53.580;-1.666;2022-08-23T08:28:47;18.60;93.60
33988;DHT22;37428;53.580;-1.666;2022-08-23T08:32:10;18.50;94.40
33988;DHT22;37428;53.580;-1.666;2022-08-23T08:35:12;18.60;93.80
33988;DHT22;37428;53.580;-1.666;2022-08-23T08:38:14;18.60;94.20
33988;DHT22;37428;53.580;-1.666;2022-08-23T08:41:24;18.60;95.00
33988;DHT22;37428;53.580;-1.666;2022-08-23T08:44:48;18.60;94.70
33988;DHT22;37428;53.580;-1.666;2022-08-23T08:48:03;18.60;95.30
33988;DHT22;37428;53.580;-1.666;2022-08-23T08:51:17;18.60;94.10
33988;DHT22;37428;53.580;-1.666;2022-08-23T08:54:24;18.70;94.60
33988;DHT22;37428;53.580;-1.666;2022-08-23T08:57:33;18.70;94.30
33988;DHT22;37428;53.580;-1.666;2022-08-23T09:00:42;18.80;93.70
33988;DHT22;37428;53.580;-1.666;2022-08-23T09:03:48;18.90;93.10
33988;DHT22;37428;53.580;-1.666;2022-08-23T09:06:57;18.90;93.20
33988;DHT22;37428;53.580;-1.666;2022-08-23T09:14:10;18.90;93.20
33988;DHT22;37428;53.580;-1.666;2022-08-23T09:17:30;19.10;93.40
33988;DHT22;37428;53.580;-1.666;2022-08-23T09:20:51;19.20;90.60
33988;DHT22;37428;53.580;-1.666;2022-08-23T09:23:54;19.40;91.40
33988;DHT22;37428;53.580;-1.666;2022-08-23T09:27:03;19.70;90.50
33988;DHT22;37428;53.580;-1.666;2022-08-23T09:30:06;20.00;90.50
33988;DHT22;37428;53.580;-1.666;2022-08-23T09:33:17;20.10;89.30
33988;DHT22;37428;53.580;-1.666;2022-08-23T09:36:25;19.90;88.60
33988;DHT22;37428;53.580;-1.666;2022-08-23T09:39:30;19.70;89.00
33988;DHT22;37428;53.580;-1.666;2022-08-23T09:42:39;19.70;90.90
33988;DHT22;37428;53.580;-1.666;2022-08-23T09:45:57;19.80;89.80
33988;DHT22;37428;53.580;-1.666;2022-08-23T09:49:21;19.90;91.20
33988;DHT22;37428;53.580;-1.666;2022-08-23T09:52:37;19.90;91.10
33988;DHT22;37428;53.580;-1.666;2022-08-23T09:59:47;19.90;89.30
33988;DHT22;37428;53.580;-1.666;2022-08-23T10:03:18;20.00;88.00
33988;DHT22;37428;53.580;-1.666;2022-08-23T10:06:52;20.00;86.50
33988;DHT22;37428;53.580;-1.666;2022-08-23T10:13:59;20.30;84.30
33988;DHT22;37428;53.580;-1.666;2022-08-23T10:17:58;20.30;82.60
33988;DHT22;37428;53.580;-1.666;2022-08-23T10:21:38;20.40;82.90
33988;DHT22;37428;53.580;-1.666;2022-08-23T10:25:25;20.50;82.10
33988;DHT22;37428;53.580;-1.666;2022-08-23T10:32:50;20.90;79.20
33988;DHT22;37428;53.580;-1.666;2022-08-23T10:36:02;21.60;77.60
33988;DHT22;37428;53.580;-1.666;2022-08-23T10:39:17;21.80;75.20
33988;DHT22;37428;53.580;-1.666;2022-08-23T10:42:32;22.20;73.70
33988;DHT22;37428;53.580;-1.666;2022-08-23T10:46:07;22.10;72.50
33988;DHT22;37428;53.580;-1.666;2022-08-23T10:49:23;22.00;71.60
33988;DHT22;37428;53.580;-1.666;2022-08-23T10:52:45;21.90;73.70
33988;DHT22;37428;53.580;-1.666;2022-08-23T10:56:05;22.40;72.90
33988;DHT22;37428;53.580;-1.666;2022-08-23T10:59:11;22.90;71.80
33988;DHT22;37428;53.580;-1.666;2022-08-23T11:02:33;23.60;69.30
33988;DHT22;37428;53.580;-1.666;2022-08-23T11:13:16;23.40;66.00
33988;DHT22;37428;53.580;-1.666;2022-08-23T11:16:26;23.80;66.90
33988;DHT22;37428;53.580;-1.666;2022-08-23T11:19:49;24.20;62.60
33988;DHT22;37428;53.580;-1.666;2022-08-23T11:23:12;24.30;61.20
33988;DHT22;37428;53.580;-1.666;2022-08-23T11:30:38;23.90;62.20
33988;DHT22;37428;53.580;-1.666;2022-08-23T11:34:06;23.70;63.20
33988;DHT22;37428;53.580;-1.666;2022-08-23T11:37:29;23.80;63.10
33988;DHT22;37428;53.580;-1.666;2022-08-23T11:41:20;23.70;63.20
33988;DHT22;37428;53.580;-1.666;2022-08-23T11:44:26;23.50;62.30
33988;DHT22;37428;53.580;-1.666;2022-08-23T11:47:41;23.40;63.10
33988;DHT22;37428;53.580;-1.666;2022-08-23T11:51:14;23.30;63.80
33988;DHT22;37428;53.580;-1.666;2022-08-23T11:54:31;23.20;64.40
33988;DHT22;37428;53.580;-1.666;2022-08-23T12:01:40;23.10;63.40
33988;DHT22;37428;53.580;-1.666;2022-08-23T12:04:50;23.30;61.70
33988;DHT22;37428;53.580;-1.666;2022-08-23T12:08:28;23.70;60.80
33988;DHT22;37428;53.580;-1.666;2022-08-23T12:12:22;23.50;61.00
33988;DHT22;37428;53.580;-1.666;2022-08-23T12:16:05;23.30;63.20
33988;DHT22;37428;53.580;-1.666;2022-08-23T12:19:16;23.00;63.50
33988;DHT22;37428;53.580;-1.666;2022-08-23T12:22:22;23.00;63.60
33988;DHT22;37428;53.580;-1.666;2022-08-23T12:25:39;23.10;64.40
33988;DHT22;37428;53.580;-1.666;2022-08-23T12:28:46;23.10;66.00
33988;DHT22;37428;53.580;-1.666;2022-08-23T12:32:16;23.10;65.60
33988;DHT22;37428;53.580;-1.666;2022-08-23T12:35:32;23.30;64.60
33988;DHT22;37428;53.580;-1.666;2022-08-23T12:38:46;23.90;63.70
33988;DHT22;37428;53.580;-1.666;2022-08-23T12:42:14;24.50;60.50
33988;DHT22;37428;53.580;-1.666;2022-08-23T12:45:21;25.00;60.20
33988;DHT22;37428;53.580;-1.666;2022-08-23T12:48:28;24.90;59.60
33988;DHT22;37428;53.580;-1.666;2022-08-23T12:51:32;24.90;61.00
33988;DHT22;37428;53.580;-1.666;2022-08-23T12:54:44;24.80;60.20
33988;DHT22;37428;53.580;-1.666;2022-08-23T12:58:24;24.60;60.90
33988;DHT22;37428;53.580;-1.666;2022-08-23T13:01:32;24.20;60.60
33988;DHT22;37428;53.580;-1.666;2022-08-23T13:04:43;24.00;62.70
33988;DHT22;37428;53.580;-1.666;2022-08-23T13:07:47;23.90;63.30
33988;DHT22;37428;53.580;-1.666;2022-08-23T13:10:51;24.10;62.80
33988;DHT22;37428;53.580;-1.666;2022-08-23T13:13:54;24.80;61.40
33988;DHT22;37428;53.580;-1.666;2022-08-23T13:17:19;25.50;58.50
33988;DHT22;37428;53.580;-1.666;2022-08-23T13:20:27;26.00;55.00
33988;DHT22;37428;53.580;-1.666;2022-08-23T13:23:43;26.40;53.20
33988;DHT22;37428;53.580;-1.666;2022-08-23T13:26:47;26.70;52.10
33988;DHT22;37428;53.580;-1.666;2022-08-23T13:29:53;27.10;54.50
33988;DHT22;37428;53.580;-1.666;2022-08-23T13:33:23;26.80;54.00
33988;DHT22;37428;53.580;-1.666;2022-08-23T13:36:43;27.00;54.30
33988;DHT22;37428;53.580;-1.666;2022-08-23T13:39:58;27.30;56.10
33988;DHT22;37428;53.580;-1.666;2022-08-23T13:43:04;27.30;52.90
33988;DHT22;37428;53.580;-1.666;2022-08-23T13:46:30;27.60;54.70
33988;DHT22;37428;53.580;-1.666;2022-08-23T13:49:35;27.60;54.30
33988;DHT22;37428;53.580;-1.666;2022-08-23T13:52:51;27.60;52.40
33988;DHT22;37428;53.580;-1.666;2022-08-23T13:55:57;27.90;49.30
33988;DHT22;37428;53.580;-1.666;2022-08-23T13:59:14;28.20;49.70
33988;DHT22;37428;53.580;-1.666;2022-08-23T14:02:22;28.10;48.30
33988;DHT22;37428;53.580;-1.666;2022-08-23T14:05:40;28.20;48.00
33988;DHT22;37428;53.580;-1.666;2022-08-23T14:08:58;28.20;47.20
33988;DHT22;37428;53.580;-1.666;2022-08-23T14:12:07;28.00;47.90
33988;DHT22;37428;53.580;-1.666;2022-08-23T14:15:22;28.10;48.70
33988;DHT22;37428;53.580;-1.666;2022-08-23T14:18:37;27.80;50.20
33988;DHT22;37428;53.580;-1.666;2022-08-23T14:22:11;27.50;49.10
33988;DHT22;37428;53.580;-1.666;2022-08-23T14:25:33;27.50;50.10
33988;DHT22;37428;53.580;-1.666;2022-08-23T14:28:36;27.70;49.40
33988;DHT22;37428;53.580;-1.666;2022-08-23T14:31:43;27.50;49.70
33988;DHT22;37428;53.580;-1.666;2022-08-23T14:34:45;27.50;49.70
33988;DHT22;37428;53.580;-1.666;2022-08-23T14:37:53;27.10;50.70
33988;DHT22;37428;53.580;-1.666;2022-08-23T14:41:21;26.80;50.30
33988;DHT22;37428;53.580;-1.666;2022-08-23T14:45:12;26.30;51.60
33988;DHT22;37428;53.580;-1.666;2022-08-23T14:48:06;26.00;53.00
33988;DHT22;37428;53.580;-1.666;2022-08-23T14:51:35;25.70;54.60
33988;DHT22;37428;53.580;-1.666;2022-08-23T14:54:56;25.60;55.60
33988;DHT22;37428;53.580;-1.666;2022-08-23T14:57:58;26.20;54.20
33988;DHT22;37428;53.580;-1.666;2022-08-23T15:01:00;26.40;52.10
33988;DHT22;37428;53.580;-1.666;2022-08-23T15:04:05;26.60;52.50
33988;DHT22;37428;53.580;-1.666;2022-08-23T15:07:22;26.60;53.30
33988;DHT22;37428;53.580;-1.666;2022-08-23T15:10:33;26.70;51.90
33988;DHT22;37428;53.580;-1.666;2022-08-23T15:13:53;26.80;49.70
33988;DHT22;37428;53.580;-1.666;2022-08-23T15:17:35;26.90;48.20
33988;DHT22;37428;53.580;-1.666;2022-08-23T15:20:39;26.90;47.40
33988;DHT22;37428;53.580;-1.666;2022-08-23T15:23:53;27.10;47.80
33988;DHT22;37428;53.580;-1.666;2022-08-23T15:26:57;26.80;47.10
33988;DHT22;37428;53.580;-1.666;2022-08-23T15:30:17;26.30;49.00
33988;DHT22;37428;53.580;-1.666;2022-08-23T15:33:20;26.10;49.70
33988;DHT22;37428;53.580;-1.666;2022-08-23T15:36:32;25.80;50.80
33988;DHT22;37428;53.580;-1.666;2022-08-23T15:39:38;25.60;51.80
33988;DHT22;37428;53.580;-1.666;2022-08-23T15:42:43;25.50;52.90
33988;DHT22;37428;53.580;-1.666;2022-08-23T15:46:16;25.40;53.60
33988;DHT22;37428;53.580;-1.666;2022-08-23T15:49:21;25.30;53.90
33988;DHT22;37428;53.580;-1.666;2022-08-23T15:52:29;25.20;54.20
33988;DHT22;37428;53.580;-1.666;2022-08-23T15:55:33;25.10;55.00
33988;DHT22;37428;53.580;-1.666;2022-08-23T15:58:53;24.90;55.30
33988;DHT22;37428;53.580;-1.666;2022-08-23T16:01:56;24.80;55.40
33988;DHT22;37428;53.580;-1.666;2022-08-23T16:04:59;24.70;56.20
33988;DHT22;37428;53.580;-1.666;2022-08-23T16:08:10;24.80;56.70
33988;DHT22;37428;53.580;-1.666;2022-08-23T16:11:13;24.70;56.70
33988;DHT22;37428;53.580;-1.666;2022-08-23T16:14:18;24.60;56.60
33988;DHT22;37428;53.580;-1.666;2022-08-23T16:17:20;24.60;55.80
33988;DHT22;37428;53.580;-1.666;2022-08-23T16:20:23;24.50;55.70
33988;DHT22;37428;53.580;-1.666;2022-08-23T16:23:26;24.40;56.30
33988;DHT22;37428;53.580;-1.666;2022-08-23T16:26:32;24.30;55.90
33988;DHT22;37428;53.580;-1.666;2022-08-23T16:29:54;24.20;56.50
33988;DHT22;37428;53.580;-1.666;2022-08-23T16:32:58;24.20;57.10
33988;DHT22;37428;53.580;-1.666;2022-08-23T16:36:08;24.10;58.10
33988;DHT22;37428;53.580;-1.666;2022-08-23T16:39:19;24.00;58.20
33988;DHT22;37428;53.580;-1.666;2022-08-23T16:42:27;24.00;58.30
33988;DHT22;37428;53.580;-1.666;2022-08-23T16:45:45;23.90;59.00
33988;DHT22;37428;53.580;-1.666;2022-08-23T16:53:07;23.70;59.30
33988;DHT22;37428;53.580;-1.666;2022-08-23T16:56:03;23.60;59.70
33988;DHT22;37428;53.580;-1.666;2022-08-23T16:59:37;23.50;59.50
33988;DHT22;37428;53.580;-1.666;2022-08-23T17:03:12;23.50;59.90
33988;DHT22;37428;53.580;-1.666;2022-08-23T17:06:08;23.50;60.20
33988;DHT22;37428;53.580;-1.666;2022-08-23T17:09:10;23.40;60.70
33988;DHT22;37428;53.580;-1.666;2022-08-23T17:12:18;23.40;61.00
33988;DHT22;37428;53.580;-1.666;2022-08-23T17:15:24;23.20;61.20
33988;DHT22;37428;53.580;-1.666;2022-08-23T17:20:21;23.10;62.00
33988;DHT22;37428;53.580;-1.666;2022-08-23T17:22:26;23.00;62.40
33988;DHT22;37428;53.580;-1.666;2022-08-23T17:25:32;22.90;63.20
33988;DHT22;37428;53.580;-1.666;2022-08-23T17:28:38;22.80;63.80
33988;DHT22;37428;53.580;-1.666;2022-08-23T17:32:10;22.70;64.00
33988;DHT22;37428;53.580;-1.666;2022-08-23T17:35:13;22.60;64.60
33988;DHT22;37428;53.580;-1.666;2022-08-23T17:38:43;22.60;64.70
33988;DHT22;37428;53.580;-1.666;2022-08-23T17:41:48;22.50;64.90
33988;DHT22;37428;53.580;-1.666;2022-08-23T17:44:58;22.50;65.20
33988;DHT22;37428;53.580;-1.666;2022-08-23T17:48:24;22.40;65.70
33988;DHT22;37428;53.580;-1.666;2022-08-23T17:51:28;22.40;65.50
33988;DHT22;37428;53.580;-1.666;2022-08-23T17:54:36;22.50;65.60
33988;DHT22;37428;53.580;-1.666;2022-08-23T17:57:41;22.50;65.60
33988;DHT22;37428;53.580;-1.666;2022-08-23T18:04:12;22.40;66.10
33988;DHT22;37428;53.580;-1.666;2022-08-23T18:07:14;22.40;65.90
33988;DHT22;37428;53.580;-1.666;2022-08-23T18:10:22;22.30;66.00
33988;DHT22;37428;53.580;-1.666;2022-08-23T18:13:26;22.30;66.30
33988;DHT22;37428;53.580;-1.666;2022-08-23T18:16:37;22.30;65.90
33988;DHT22;37428;53.580;-1.666;2022-08-23T18:20:03;22.30;66.40
33988;DHT22;37428;53.580;-1.666;2022-08-23T18:23:14;22.20;67.60
33988;DHT22;37428;53.580;-1.666;2022-08-23T18:26:21;22.20;67.30
33988;DHT22;37428;53.580;-1.666;2022-08-23T18:30:15;22.20;67.30
33988;DHT22;37428;53.580;-1.666;2022-08-23T18:33:25;22.10;67.10
33988;DHT22;37428;53.580;-1.666;2022-08-23T18:36:30;22.00;66.90
33988;DHT22;37428;53.580;-1.666;2022-08-23T18:43:02;21.80;66.30
33988;DHT22;37428;53.580;-1.666;2022-08-23T18:46:05;21.80;65.90
33988;DHT22;37428;53.580;-1.666;2022-08-23T18:53:08;21.80;66.00
33988;DHT22;37428;53.580;-1.666;2022-08-23T18:56:10;21.70;65.90
33988;DHT22;37428;53.580;-1.666;2022-08-23T18:59:19;21.70;66.00
33988;DHT22;37428;53.580;-1.666;2022-08-23T19:02:21;21.70;66.20
33988;DHT22;37428;53.580;-1.666;2022-08-23T19:05:34;21.70;65.60
33988;DHT22;37428;53.580;-1.666;2022-08-23T19:08:54;21.60;65.10
33988;DHT22;37428;53.580;-1.666;2022-08-23T19:12:10;21.50;65.50
33988;DHT22;37428;53.580;-1.666;2022-08-23T19:15:31;21.50;66.30
33988;DHT22;37428;53.580;-1.666;2022-08-23T19:18:55;21.40;67.00
33988;DHT22;37428;53.580;-1.666;2022-08-23T19:21:57;21.40;67.80
33988;DHT22;37428;53.580;-1.666;2022-08-23T19:25:15;21.30;68.20
33988;DHT22;37428;53.580;-1.666;2022-08-23T19:28:33;21.30;68.80
33988;DHT22;37428;53.580;-1.666;2022-08-23T19:31:35;21.30;69.00
33988;DHT22;37428;53.580;-1.666;2022-08-23T19:34:52;21.30;69.30
33988;DHT22;37428;53.580;-1.666;2022-08-23T19:37:54;21.30;69.80
33988;DHT22;37428;53.580;-1.666;2022-08-23T19:41:02;21.20;69.70
33988;DHT22;37428;53.580;-1.666;2022-08-23T19:44:19;21.20;70.00
33988;DHT22;37428;53.580;-1.666;2022-08-23T19:47:40;21.20;70.30
33988;DHT22;37428;53.580;-1.666;2022-08-23T19:50:50;21.20;70.40
33988;DHT22;37428;53.580;-1.666;2022-08-23T19:53:56;21.10;70.60
33988;DHT22;37428;53.580;-1.666;2022-08-23T19:57:14;21.10;70.90
33988;DHT22;37428;53.580;-1.666;2022-08-23T20:00:25;21.10;71.30
33988;DHT22;37428;53.580;-1.666;2022-08-23T20:03:27;21.10;71.40
33988;DHT22;37428;53.580;-1.666;2022-08-23T20:06:53;21.20;71.40
33988;DHT22;37428;53.580;-1.666;2022-08-23T20:09:55;21.10;72.00
33988;DHT22;37428;53.580;-1.666;2022-08-23T20:13:00;21.10;71.80
33988;DHT22;37428;53.580;-1.666;2022-08-23T20:16:12;21.10;71.40
33988;DHT22;37428;53.580;-1.666;2022-08-23T20:19:18;21.10;71.30
33988;DHT22;37428;53.580;-1.666;2022-08-23T20:22:24;21.10;72.00
33988;DHT22;37428;53.580;-1.666;2022-08-23T20:26:20;21.00;72.30
33988;DHT22;37428;53.580;-1.666;2022-08-23T20:29:31;20.90;72.80
33988;DHT22;37428;53.580;-1.666;2022-08-23T20:32:47;20.90;73.10
33988;DHT22;37428;53.580;-1.666;2022-08-23T20:35:50;20.90;73.60
33988;DHT22;37428;53.580;-1.666;2022-08-23T20:38:54;20.80;73.70
33988;DHT22;37428;53.580;-1.666;2022-08-23T20:41:59;20.80;74.00
33988;DHT22;37428;53.580;-1.666;2022-08-23T20:45:18;20.80;74.00
33988;DHT22;37428;53.580;-1.666;2022-08-23T20:48:21;20.80;74.10
33988;DHT22;37428;53.580;-1.666;2022-08-23T20:51:39;20.80;74.40
33988;DHT22;37428;53.580;-1.666;2022-08-23T20:54:43;20.80;74.40
33988;DHT22;37428;53.580;-1.666;2022-08-23T20:58:11;20.70;74.40
33988;DHT22;37428;53.580;-1.666;2022-08-23T21:01:27;20.70;74.30
33988;DHT22;37428;53.580;-1.666;2022-08-23T21:05:09;20.70;74.50
33988;DHT22;37428;53.580;-1.666;2022-08-23T21:11:48;20.70;73.80
33988;DHT22;37428;53.580;-1.666;2022-08-23T21:15:16;20.60;73.90
33988;DHT22;37428;53.580;-1.666;2022-08-23T21:18:19;20.50;75.20
33988;DHT22;37428;53.580;-1.666;2022-08-23T21:21:28;20.30;76.10
33988;DHT22;37428;53.580;-1.666;2022-08-23T21:24:42;20.30;76.50
33988;DHT22;37428;53.580;-1.666;2022-08-23T21:28:11;20.20;77.10